createdAt,value
2018-12-06T00:04:50.912Z,15.37
2018-12-06T00:41:04.446Z,11.83
2018-12-06T01:17:26.827Z,9.83
2018-12-06T01:22:29.825Z,13.93
2018-12-06T01:27:38.825Z,8.43
2018-12-06T01:32:47.794Z,11.70
2018-12-06T01:37:56.623Z,12.77
2018-12-06T01:42:59.459Z,8.43
2018-12-06T02:00:40.871Z,7.50
2018-12-06T02:18:36.839Z,11.47
2018-12-06T02:23:40.895Z,12.50
2018-12-06T02:28:49.959Z,8.70
2018-12-06T02:33:58.937Z,9.50
2018-12-06T02:39:09.703Z,8.77
2018-12-06T03:21:47.676Z,9.43
2018-12-06T03:26:50.619Z,9.57
2018-12-06T03:31:59.577Z,8.47
2018-12-06T03:37:08.491Z,14.10
2018-12-06T03:42:17.323Z,12.00
2018-12-06T04:31:08.337Z,9.63
2018-12-06T04:36:13.412Z,11.57
2018-12-06T05:06:25.216Z,11.53
2018-12-06T05:11:28.207Z,14.27
2018-12-06T05:16:33.817Z,14.57
2018-12-06T05:21:42.952Z,21.57
2018-12-06T05:26:46.294Z,17.50
2018-12-06T05:31:49.882Z,17.53
2018-12-06T05:55:33.095Z,19.53
2018-12-06T06:00:40.894Z,10.43
2018-12-06T06:05:45.818Z,7.33
2018-12-06T06:10:52.248Z,15.33
2018-12-06T06:16:01.010Z,8.87
2018-12-06T06:21:04.315Z,17.40
2018-12-06T06:26:10.341Z,12.93
2018-12-06T06:31:19.515Z,17.80
2018-12-06T06:36:22.822Z,7.73
2018-12-06T06:41:32.025Z,20.37
2018-12-06T06:46:40.890Z,12.77
2018-12-06T06:51:49.983Z,9.23
2018-12-06T06:56:52.966Z,10.63
2018-12-06T07:02:01.763Z,13.90
2018-12-06T07:07:11.149Z,12.33
2018-12-06T07:12:20.223Z,11.70
2018-12-06T07:17:23.249Z,16.47
2018-12-06T07:22:32.213Z,10.27
2018-12-06T07:27:41.051Z,13.87
2018-12-06T07:32:49.900Z,12.80
2018-12-06T07:37:52.808Z,9.57
2018-12-06T07:43:01.527Z,15.23
2018-12-06T07:48:10.525Z,12.57
2018-12-06T07:53:19.546Z,7.47
2018-12-06T07:58:22.403Z,10.20
2018-12-06T08:03:31.407Z,9.47
2018-12-06T08:08:40.400Z,11.10
2018-12-06T08:13:49.176Z,10.33
2018-12-06T08:18:52.203Z,11.83
2018-12-06T08:24:01.140Z,9.57
2018-12-06T08:29:10.156Z,10.10
2018-12-06T08:34:19.131Z,10.53
2018-12-06T08:39:22.023Z,13.27
2018-12-06T08:44:25.840Z,11.70
2018-12-06T08:49:29.371Z,16.43
2018-12-06T08:54:32.342Z,20.23
2018-12-06T08:59:35.914Z,10.87
2018-12-06T09:04:39.873Z,15.53
2018-12-06T09:09:48.542Z,13.37
2018-12-06T09:14:54.579Z,21.63
2018-12-06T09:19:59.451Z,17.97
2018-12-06T09:25:05.506Z,14.30
2018-12-06T09:30:09.345Z,17.03
2018-12-06T09:35:12.522Z,10.73
2018-12-06T09:40:21.475Z,11.63
2018-12-06T09:45:27.357Z,14.20
2018-12-06T09:50:30.891Z,13.27
2018-12-06T09:55:34.420Z,13.40
2018-12-06T10:00:37.480Z,16.40
2018-12-06T10:05:46.143Z,16.20
2018-12-06T10:10:54.979Z,16.40
2018-12-06T10:16:00.887Z,15.93
2018-12-06T10:21:04.190Z,14.30
2018-12-06T10:26:10.951Z,14.93
2018-12-06T10:31:18.211Z,17.57
2018-12-06T10:36:22.063Z,14.63
2018-12-06T10:41:25.882Z,11.27
2018-12-06T10:46:32.567Z,12.67
2018-12-06T10:51:42.075Z,19.90
2018-12-06T10:56:46.029Z,17.27
2018-12-06T11:01:56.572Z,24.10
2018-12-06T11:07:01.954Z,23.77
2018-12-06T11:12:09.561Z,16.50
2018-12-06T11:17:19.108Z,17.30
2018-12-06T11:22:25.213Z,26.63
2018-12-06T11:27:28.130Z,20.50
2018-12-06T11:32:32.069Z,23.17
2018-12-06T11:37:38.192Z,21.23
2018-12-06T11:42:43.313Z,18.57
2018-12-06T11:47:47.986Z,20.20
2018-12-06T11:52:53.017Z,20.50
2018-12-06T11:57:56.946Z,23.03
2018-12-06T12:03:00.617Z,22.27
2018-12-06T12:08:08.466Z,26.93
2018-12-06T12:13:15.056Z,24.33
2018-12-06T12:18:23.016Z,22.90
2018-12-06T12:23:31.915Z,26.33
2018-12-06T12:28:37.962Z,31.50
2018-12-06T12:33:41.626Z,22.47
2018-12-06T12:38:47.577Z,39.10
2018-12-06T12:43:56.211Z,26.00
2018-12-06T12:48:59.681Z,36.47
2018-12-06T12:54:08.567Z,33.47
2018-12-06T12:59:17.634Z,27.07
2018-12-06T13:04:22.648Z,29.27
2018-12-06T13:09:25.560Z,26.47
2018-12-06T13:14:28.935Z,26.53
2018-12-06T13:19:35.530Z,29.53
2018-12-06T13:24:39.611Z,30.17
2018-12-06T13:29:43.503Z,48.73
2018-12-06T13:34:48.443Z,45.87
2018-12-06T13:39:51.445Z,49.50
2018-12-06T13:44:55.062Z,38.40
2018-12-06T13:50:01.610Z,41.60
2018-12-06T13:55:05.178Z,40.50
2018-12-06T14:00:09.080Z,42.43
2018-12-06T14:05:13.643Z,38.93
2018-12-06T14:10:19.505Z,44.97
2018-12-06T14:15:22.487Z,38.10
2018-12-06T14:20:26.174Z,40.57
2018-12-06T14:25:31.059Z,48.37
2018-12-06T14:30:34.612Z,43.53
2018-12-06T14:35:38.034Z,37.97
2018-12-06T14:40:46.964Z,47.70
2018-12-06T14:45:56.219Z,39.93
2018-12-06T14:51:04.989Z,47.27
2018-12-06T14:56:13.831Z,46.00
2018-12-06T15:01:16.714Z,45.07
2018-12-06T15:06:25.529Z,42.13
2018-12-06T15:11:34.378Z,42.13
2018-12-06T15:16:43.390Z,43.20
2018-12-06T15:21:46.304Z,43.30
2018-12-06T15:26:55.555Z,36.70
2018-12-06T15:32:04.259Z,50.37
2018-12-06T15:37:13.081Z,41.93
2018-12-06T15:42:16.060Z,39.00
2018-12-06T15:47:25.129Z,36.43
2018-12-06T15:52:33.938Z,33.40
2018-12-06T15:57:42.890Z,38.50
2018-12-06T16:02:45.845Z,39.10
2018-12-06T16:07:54.507Z,40.70
2018-12-06T16:13:03.268Z,34.50
2018-12-06T16:18:12.204Z,46.87
2018-12-06T16:23:15.079Z,33.83
2018-12-06T16:28:24.736Z,42.67
2018-12-06T16:33:34.336Z,31.67
2018-12-06T16:38:43.445Z,42.33
2018-12-06T16:43:49.887Z,38.47
2018-12-06T16:48:52.785Z,41.03
2018-12-06T16:53:59.713Z,41.63
2018-12-06T16:59:04.728Z,41.77
2018-12-06T17:04:07.660Z,47.03
2018-12-06T17:09:10.580Z,37.67
2018-12-06T17:14:13.595Z,46.23
2018-12-06T17:19:16.491Z,49.30
2018-12-06T17:24:20.074Z,43.13
2018-12-06T17:29:23.108Z,43.87
2018-12-06T17:34:25.992Z,44.77
2018-12-06T17:39:29.626Z,46.20
2018-12-06T17:44:32.567Z,45.47
2018-12-06T17:49:35.495Z,43.87
2018-12-06T17:54:39.200Z,41.63
2018-12-06T17:59:44.199Z,50.17
2018-12-06T18:04:48.675Z,46.63
2018-12-06T18:09:53.792Z,41.47
2018-12-06T18:15:00.495Z,45.73
2018-12-06T18:20:04.610Z,38.20
2018-12-06T18:25:07.516Z,41.33
2018-12-06T18:30:10.671Z,45.43
2018-12-06T18:35:13.630Z,42.27
2018-12-06T18:40:17.424Z,47.20
2018-12-06T18:45:20.512Z,51.03
2018-12-06T18:50:58.896Z,47.13
2018-12-06T18:56:01.866Z,44.37
2018-12-06T19:01:07.782Z,45.53
2018-12-06T19:06:10.825Z,57.97
2018-12-06T19:11:15.714Z,57.37
2018-12-06T19:16:20.195Z,58.83
2018-12-06T19:21:24.596Z,53.00
2018-12-06T19:26:28.058Z,46.93
2018-12-06T19:31:31.162Z,48.47
2018-12-06T19:36:35.908Z,54.30
2018-12-06T19:41:40.784Z,45.73
2018-12-06T19:46:46.854Z,56.30
2018-12-06T19:51:49.829Z,49.70
2018-12-06T19:56:54.712Z,63.20
2018-12-06T20:01:58.297Z,45.07
2018-12-06T20:07:01.282Z,57.37
2018-12-06T20:12:04.434Z,55.47
2018-12-06T20:17:08.162Z,48.10
2018-12-06T20:22:11.960Z,42.10
2018-12-06T20:27:15.019Z,52.20
2018-12-06T20:32:21.027Z,49.10
2018-12-06T20:37:25.839Z,48.13
2018-12-06T20:42:29.877Z,43.60
2018-12-06T20:47:33.950Z,33.73
2018-12-06T20:52:37.867Z,43.67
2018-12-06T20:57:41.827Z,42.37
2018-12-06T21:02:44.868Z,48.53
2018-12-06T21:07:49.882Z,48.67
2018-12-06T21:12:54.862Z,47.53
2018-12-06T21:18:01.845Z,36.97
2018-12-06T21:23:05.143Z,38.37
2018-12-06T21:28:09.252Z,30.57
2018-12-06T21:33:12.647Z,27.80
2018-12-06T21:38:19.820Z,26.53
2018-12-06T21:43:26.407Z,29.30
2018-12-06T21:48:31.442Z,31.13
2018-12-06T21:53:35.241Z,25.70
2018-12-06T21:58:38.247Z,25.73
2018-12-06T22:03:42.045Z,25.87
2018-12-06T22:08:51.467Z,30.33
2018-12-06T22:13:57.668Z,26.20
2018-12-06T22:19:06.647Z,32.07
2018-12-06T22:24:12.835Z,28.40
2018-12-06T22:29:17.001Z,25.70
2018-12-06T22:34:26.190Z,22.33
2018-12-06T22:39:29.883Z,29.77
2018-12-06T22:44:36.851Z,26.97
2018-12-06T22:49:41.291Z,22.87
2018-12-06T22:54:50.590Z,28.47
2018-12-06T22:59:53.902Z,32.03
2018-12-06T23:04:57.447Z,36.33
2018-12-06T23:10:01.374Z,31.93
2018-12-06T23:15:05.295Z,37.10
2018-12-06T23:20:12.000Z,29.73
2018-12-06T23:25:18.023Z,27.13
2018-12-06T23:30:21.126Z,30.00
2018-12-06T23:35:24.806Z,25.90
2018-12-06T23:40:27.930Z,29.87
2018-12-06T23:45:31.402Z,23.17
2018-12-06T23:50:35.927Z,23.80
2018-12-06T23:55:38.920Z,23.90
